^^
Station Historical Data
Daily Summary for May 19, 2017 Units:  Both    English   Metric
« Previous Day
Next Day »
Daily Weekly Monthly Yearly Custom
  High: Low: Average:
Temperature: 73.9 °F /  23.3 °C 47.1 °F /  8.4 °C 59.3 °F /  15.2 °C
Dew Point: 40.3 °F /  4.6 °C 32.9 °F /  0.5 °C 36 °F /  2.2 °C
Humidity: 67% 24% 45%
Wind Speed: 8.9mph /  14.3km/h - 1.1mph /  1.8km/h
Wind Gust: 13.0mph /  20.9km/h - -
Wind- - ENE
Pressure: 30.48 in /  1032.1 hPa 30.37 in /  1028.3 hPa -
Precipitation: 0.00 in /  0 mm    
Historical Graphs
 
 
Tabular Data for May 19, 2017
Time Temperature Dew Point Pressure Wind Wind Speed Wind Gust Humidity Rainfall Rate (Hourly) solar Conditions
00:04 51.1 °F /  10.6 °C 36.0 °F /  2.2 °C 30.40in /  1029.3hPa Calm   1.0mph /  1.6km/h 56% 0.00in /  0mm 0.0 W/m2
00:11 51.1 °F /  10.6 °C 36.3 °F /  2.4 °C 30.40in /  1029.3hPa Calm   1.0mph /  1.6km/h 57% 0.00in /  0mm 0.0 W/m2
00:16 51.1 °F /  10.6 °C 36.0 °F /  2.2 °C 30.40in /  1029.3hPa Calm   1.0mph /  1.6km/h 56% 0.00in /  0mm 0.0 W/m2
00:23 51.1 °F /  10.6 °C 36.0 °F /  2.2 °C 30.40in /  1029.3hPa Calm   1.0mph /  1.6km/h 56% 0.00in /  0mm 0.0 W/m2
00:29 51.1 °F /  10.6 °C 36.3 °F /  2.4 °C 30.40in /  1029.3hPa Calm   1.0mph /  1.6km/h 57% 0.00in /  0mm 0.0 W/m2
00:35 50.9 °F /  10.5 °C 36.1 °F /  2.3 °C 30.40in /  1029.3hPa Calm   2.0mph /  3.2km/h 57% 0.00in /  0mm 0.0 W/m2
00:41 50.7 °F /  10.4 °C 36.0 °F /  2.2 °C 30.40in /  1029.3hPa Calm   1.0mph /  1.6km/h 57% 0.00in /  0mm 0.0 W/m2
00:47 50.7 °F /  10.4 °C 36.0 °F /  2.2 °C 30.40in /  1029.3hPa Calm     57% 0.00in /  0mm 0.0 W/m2
00:53 50.7 °F /  10.4 °C 36.0 °F /  2.2 °C 30.40in /  1029.3hPa Calm     57% 0.00in /  0mm 0.0 W/m2
00:59 50.7 °F /  10.4 °C 36.5 °F /  2.5 °C 30.40in /  1029.3hPa Calm   2.0mph /  3.2km/h 58% 0.00in /  0mm 0.0 W/m2
01:05 50.7 °F /  10.4 °C 36.5 °F /  2.5 °C 30.40in /  1029.3hPa Calm     58% 0.00in /  0mm 0.0 W/m2
01:11 50.5 °F /  10.3 °C 36.3 °F /  2.4 °C 30.40in /  1029.3hPa ESE 0.9mph /  1.4km/h 1.0mph /  1.6km/h 58% 0.00in /  0mm 0.0 W/m2
01:17 50.5 °F /  10.3 °C 36.3 °F /  2.4 °C 30.40in /  1029.3hPa Calm   3.0mph /  4.8km/h 58% 0.00in /  0mm 0.0 W/m2
01:23 50.5 °F /  10.3 °C 36.3 °F /  2.4 °C 30.40in /  1029.3hPa Calm   1.0mph /  1.6km/h 58% 0.00in /  0mm 0.0 W/m2
01:29 50.4 °F /  10.2 °C 36.1 °F /  2.3 °C 30.40in /  1029.3hPa East 4.0mph /  6.4km/h 6.0mph /  9.7km/h 58% 0.00in /  0mm 0.0 W/m2
01:35 50.4 °F /  10.2 °C 36.1 °F /  2.3 °C 30.39in /  1029hPa Calm   1.0mph /  1.6km/h 58% 0.00in /  0mm 0.0 W/m2
01:41 50.2 °F /  10.1 °C 36.3 °F /  2.4 °C 30.39in /  1029hPa Calm   2.0mph /  3.2km/h 59% 0.00in /  0mm 0.0 W/m2
01:47 50.2 °F /  10.1 °C 36.3 °F /  2.4 °C 30.39in /  1029hPa Calm     59% 0.00in /  0mm 0.0 W/m2
01:53 50.0 °F /  10 °C 36.3 °F /  2.4 °C 30.39in /  1029hPa ESE 2.0mph /  3.2km/h 3.0mph /  4.8km/h 59% 0.00in /  0mm 0.0 W/m2
01:59 49.8 °F /  9.9 °C 36.5 °F /  2.5 °C 30.39in /  1029hPa Calm   1.0mph /  1.6km/h 60% 0.00in /  0mm 0.0 W/m2
02:05 49.8 °F /  9.9 °C 36.5 °F /  2.5 °C 30.39in /  1029hPa Calm     60% 0.00in /  0mm 0.0 W/m2
02:11 49.6 °F /  9.8 °C 36.3 °F /  2.4 °C 30.39in /  1029hPa Calm     60% 0.00in /  0mm 0.0 W/m2
02:17 49.6 °F /  9.8 °C 36.3 °F /  2.4 °C 30.40in /  1029.3hPa Calm     60% 0.00in /  0mm 0.0 W/m2
02:23 49.5 °F /  9.7 °C 36.5 °F /  2.5 °C 30.39in /  1029hPa Calm   1.0mph /  1.6km/h 61% 0.00in /  0mm 0.0 W/m2
02:29 49.3 °F /  9.6 °C 36.3 °F /  2.4 °C 30.40in /  1029.3hPa Calm     61% 0.00in /  0mm 0.0 W/m2
02:35 49.3 °F /  9.6 °C 36.3 °F /  2.4 °C 30.40in /  1029.3hPa ESE 0.9mph /  1.4km/h 3.0mph /  4.8km/h 61% 0.00in /  0mm 0.0 W/m2
02:41 49.3 °F /  9.6 °C 36.3 °F /  2.4 °C 30.39in /  1029hPa Calm     61% 0.00in /  0mm 0.0 W/m2
02:47 49.3 °F /  9.6 °C 36.3 °F /  2.4 °C 30.39in /  1029hPa Calm     61% 0.00in /  0mm 0.0 W/m2
02:53 49.3 °F /  9.6 °C 36.3 °F /  2.4 °C 30.40in /  1029.3hPa Calm   1.0mph /  1.6km/h 61% 0.00in /  0mm 0.0 W/m2
02:59 49.3 °F /  9.6 °C 36.3 °F /  2.4 °C 30.40in /  1029.3hPa Calm   3.0mph /  4.8km/h 61% 0.00in /  0mm 0.0 W/m2
03:05 49.1 °F /  9.5 °C 36.3 °F /  2.4 °C 30.40in /  1029.3hPa Calm   1.0mph /  1.6km/h 61% 0.00in /  0mm 0.0 W/m2
03:13 48.9 °F /  9.4 °C 36.1 °F /  2.3 °C 30.40in /  1029.3hPa Calm   1.0mph /  1.6km/h 61% 0.00in /  0mm 0.0 W/m2
03:19 48.9 °F /  9.4 °C 36.1 °F /  2.3 °C 30.40in /  1029.3hPa Calm   1.0mph /  1.6km/h 61% 0.00in /  0mm 0.0 W/m2
03:25 48.9 °F /  9.4 °C 36.1 °F /  2.3 °C 30.40in /  1029.3hPa Calm     61% 0.00in /  0mm 0.0 W/m2
03:31 48.7 °F /  9.3 °C 36.3 °F /  2.4 °C 30.40in /  1029.3hPa Calm   3.0mph /  4.8km/h 62% 0.00in /  0mm 0.0 W/m2
03:37 48.6 °F /  9.2 °C 36.1 °F /  2.3 °C 30.40in /  1029.3hPa Calm     62% 0.00in /  0mm 0.0 W/m2
03:43 48.6 °F /  9.2 °C 36.1 °F /  2.3 °C 30.40in /  1029.3hPa Calm   3.0mph /  4.8km/h 62% 0.00in /  0mm 0.0 W/m2
03:49 48.6 °F /  9.2 °C 36.1 °F /  2.3 °C 30.40in /  1029.3hPa Calm     62% 0.00in /  0mm 0.0 W/m2
03:55 48.6 °F /  9.2 °C 36.1 °F /  2.3 °C 30.40in /  1029.3hPa Calm     62% 0.00in /  0mm 0.0 W/m2
04:01 48.6 °F /  9.2 °C 36.1 °F /  2.3 °C 30.40in /  1029.3hPa Calm     62% 0.00in /  0mm 0.0 W/m2
04:07 48.4 °F /  9.1 °C 36.3 °F /  2.4 °C 30.41in /  1029.7hPa Calm     63% 0.00in /  0mm 0.0 W/m2
04:13 48.2 °F /  9 °C 36.1 °F /  2.3 °C 30.41in /  1029.7hPa Calm   1.0mph /  1.6km/h 63% 0.00in /  0mm 0.0 W/m2
04:19 48.0 °F /  8.9 °C 36.0 °F /  2.2 °C 30.41in /  1029.7hPa Calm   4.0mph /  6.4km/h 63% 0.00in /  0mm 0.0 W/m2
04:25 48.0 °F /  8.9 °C 36.0 °F /  2.2 °C 30.41in /  1029.7hPa Calm   1.0mph /  1.6km/h 63% 0.00in /  0mm 0.0 W/m2
04:31 47.8 °F /  8.8 °C 35.8 °F /  2.1 °C 30.41in /  1029.7hPa East 0.9mph /  1.4km/h 1.0mph /  1.6km/h 63% 0.00in /  0mm 0.0 W/m2
04:37 47.8 °F /  8.8 °C 36.3 °F /  2.4 °C 30.41in /  1029.7hPa Calm   4.0mph /  6.4km/h 64% 0.00in /  0mm 0.0 W/m2
04:43 47.8 °F /  8.8 °C 36.3 °F /  2.4 °C 30.41in /  1029.7hPa Calm   1.0mph /  1.6km/h 64% 0.00in /  0mm 0.0 W/m2
04:49 47.8 °F /  8.8 °C 36.3 °F /  2.4 °C 30.41in /  1029.7hPa Calm   2.0mph /  3.2km/h 64% 0.00in /  0mm 0.0 W/m2
04:55 47.8 °F /  8.8 °C 36.3 °F /  2.4 °C 30.41in /  1029.7hPa Calm   3.0mph /  4.8km/h 64% 0.00in /  0mm 0.0 W/m2
05:01 47.8 °F /  8.8 °C 36.3 °F /  2.4 °C 30.41in /  1029.7hPa Calm   1.0mph /  1.6km/h 64% 0.00in /  0mm 0.0 W/m2
05:07 47.8 °F /  8.8 °C 36.3 °F /  2.4 °C 30.42in /  1030hPa ENE 0.9mph /  1.4km/h 1.0mph /  1.6km/h 64% 0.00in /  0mm 0.0 W/m2
05:13 47.7 °F /  8.7 °C 36.1 °F /  2.3 °C 30.42in /  1030hPa East 0.9mph /  1.4km/h 2.0mph /  3.2km/h 64% 0.00in /  0mm 0.0 W/m2
05:19 47.7 °F /  8.7 °C 36.5 °F /  2.5 °C 30.42in /  1030hPa Calm   3.0mph /  4.8km/h 65% 0.00in /  0mm 0.0 W/m2
05:25 47.5 °F /  8.6 °C 36.3 °F /  2.4 °C 30.42in /  1030hPa Calm     65% 0.00in /  0mm 0.0 W/m2
05:32 47.5 °F /  8.6 °C 36.3 °F /  2.4 °C 30.42in /  1030hPa Calm     65% 0.00in /  0mm 0.0 W/m2
05:38 47.5 °F /  8.6 °C 36.3 °F /  2.4 °C 30.42in /  1030hPa Calm   1.0mph /  1.6km/h 65% 0.00in /  0mm 0.0 W/m2
05:44 47.3 °F /  8.5 °C 36.5 °F /  2.5 °C 30.42in /  1030hPa Calm   2.0mph /  3.2km/h 66% 0.00in /  0mm 0.0 W/m2
05:50 47.1 °F /  8.4 °C 36.3 °F /  2.4 °C 30.42in /  1030hPa Calm     66% 0.00in /  0mm 0.0 W/m2
05:56 47.1 °F /  8.4 °C 36.3 °F /  2.4 °C 30.42in /  1030hPa Calm     66% 0.00in /  0mm 0.0 W/m2
06:02 47.1 °F /  8.4 °C 36.7 °F /  2.6 °C 30.43in /  1030.4hPa Calm     67% 0.00in /  0mm 0.0 W/m2
06:08 47.5 °F /  8.6 °C 36.7 °F /  2.6 °C 30.43in /  1030.4hPa Calm   2.0mph /  3.2km/h 66% 0.00in /  0mm 0.0 W/m2
06:14 47.7 °F /  8.7 °C 36.9 °F /  2.7 °C 30.43in /  1030.4hPa Calm   1.0mph /  1.6km/h 66% 0.00in /  0mm 0.0 W/m2
06:20 47.8 °F /  8.8 °C 36.7 °F /  2.6 °C 30.43in /  1030.4hPa Calm   1.0mph /  1.6km/h 65% 0.00in /  0mm 0.0 W/m2
06:26 47.8 °F /  8.8 °C 36.7 °F /  2.6 °C 30.44in /  1030.7hPa Calm   2.0mph /  3.2km/h 65% 0.00in /  0mm 7.0 W/m2
06:32 47.8 °F /  8.8 °C 36.7 °F /  2.6 °C 30.44in /  1030.7hPa Calm   1.0mph /  1.6km/h 65% 0.00in /  0mm 9.0 W/m2
06:38 47.8 °F /  8.8 °C 36.7 °F /  2.6 °C 30.44in /  1030.7hPa Calm     65% 0.00in /  0mm 11.0 W/m2
06:44 47.8 °F /  8.8 °C 36.7 °F /  2.6 °C 30.44in /  1030.7hPa Calm   2.0mph /  3.2km/h 65% 0.00in /  0mm 12.0 W/m2
06:51 47.8 °F /  8.8 °C 36.7 °F /  2.6 °C 30.44in /  1030.7hPa Calm   1.0mph /  1.6km/h 65% 0.00in /  0mm 14.0 W/m2
06:57 48.0 °F /  8.9 °C 37.2 °F /  2.9 °C 30.44in /  1030.7hPa Calm   1.0mph /  1.6km/h 66% 0.00in /  0mm 16.0 W/m2
07:03 48.4 °F /  9.1 °C 37.6 °F /  3.1 °C 30.44in /  1030.7hPa East 2.0mph /  3.2km/h 4.0mph /  6.4km/h 66% 0.00in /  0mm 18.0 W/m2
07:09 48.7 °F /  9.3 °C 37.6 °F /  3.1 °C 30.44in /  1030.7hPa Calm   4.0mph /  6.4km/h 65% 0.00in /  0mm 19.0 W/m2
07:15 49.3 °F /  9.6 °C 37.6 °F /  3.1 °C 30.44in /  1030.7hPa Calm   3.0mph /  4.8km/h 64% 0.00in /  0mm 21.0 W/m2
07:21 49.5 °F /  9.7 °C 38.1 °F /  3.4 °C 30.44in /  1030.7hPa Calm   2.0mph /  3.2km/h 65% 0.00in /  0mm 23.0 W/m2
07:32 50.0 °F /  10 °C 38.7 °F /  3.7 °C 30.44in /  1030.7hPa East 0.9mph /  1.4km/h 1.0mph /  1.6km/h 65% 0.00in /  0mm 25.0 W/m2
07:38 50.4 °F /  10.2 °C 38.7 °F /  3.7 °C 30.44in /  1030.7hPa NNE 0.9mph /  1.4km/h 3.0mph /  4.8km/h 64% 0.00in /  0mm 26.0 W/m2
07:44 51.1 °F /  10.6 °C 38.8 °F /  3.8 °C 30.45in /  1031hPa Calm   2.0mph /  3.2km/h 63% 0.00in /  0mm 26.0 W/m2
07:50 52.2 °F /  11.2 °C 38.7 °F /  3.7 °C 30.45in /  1031hPa NE 0.9mph /  1.4km/h 3.0mph /  4.8km/h 60% 0.00in /  0mm 28.0 W/m2
07:56 53.6 °F /  12 °C 39.2 °F /  4 °C 30.45in /  1031hPa Calm   1.0mph /  1.6km/h 58% 0.00in /  0mm 28.0 W/m2
08:02 54.7 °F /  12.6 °C 39.4 °F /  4.1 °C 30.45in /  1031hPa Calm   1.0mph /  1.6km/h 56% 0.00in /  0mm 30.0 W/m2
08:08 56.5 °F /  13.6 °C 40.1 °F /  4.5 °C 30.45in /  1031hPa Calm   3.0mph /  4.8km/h 54% 0.00in /  0mm 355.0 W/m2
08:14 58.3 °F /  14.6 °C 40.3 °F /  4.6 °C 30.45in /  1031hPa Calm   3.0mph /  4.8km/h 51% 0.00in /  0mm 374.0 W/m2
08:21 60.1 °F /  15.6 °C 40.3 °F /  4.6 °C 30.45in /  1031hPa Calm   1.0mph /  1.6km/h 48% 0.00in /  0mm 396.0 W/m2
08:27 61.2 °F /  16.2 °C 40.3 °F /  4.6 °C 30.46in /  1031.4hPa Calm   3.0mph /  4.8km/h 46% 0.00in /  0mm 413.0 W/m2
08:33 62.6 °F /  17 °C 39.7 °F /  4.3 °C 30.45in /  1031hPa ENE 4.0mph /  6.4km/h 5.0mph /  8km/h 43% 0.00in /  0mm 432.0 W/m2
08:39 64.2 °F /  17.9 °C 39.4 °F /  4.1 °C 30.45in /  1031hPa NNE 0.9mph /  1.4km/h 3.0mph /  4.8km/h 40% 0.00in /  0mm 452.0 W/m2
08:45 65.5 °F /  18.6 °C 39.2 °F /  4 °C 30.46in /  1031.4hPa NNE 2.0mph /  3.2km/h 5.0mph /  8km/h 38% 0.00in /  0mm 475.0 W/m2
08:51 66.2 °F /  19 °C 37.8 °F /  3.2 °C 30.46in /  1031.4hPa NNE 4.9mph /  7.9km/h 9.0mph /  14.5km/h 35% 0.00in /  0mm 492.0 W/m2
08:57 66.7 °F /  19.3 °C 38.3 °F /  3.5 °C 30.46in /  1031.4hPa NE 4.9mph /  7.9km/h 9.0mph /  14.5km/h 35% 0.00in /  0mm 508.0 W/m2
09:04 67.1 °F /  19.5 °C 37.8 °F /  3.2 °C 30.46in /  1031.4hPa East 2.9mph /  4.7km/h 7.0mph /  11.3km/h 34% 0.00in /  0mm 524.0 W/m2
09:09 67.6 °F /  19.8 °C 38.3 °F /  3.5 °C 30.47in /  1031.7hPa Calm   5.0mph /  8km/h 34% 0.00in /  0mm 540.0 W/m2
09:16 68.0 °F /  20 °C 38.7 °F /  3.7 °C 30.46in /  1031.4hPa NNE 2.0mph /  3.2km/h 8.0mph /  12.9km/h 34% 0.00in /  0mm 555.0 W/m2
09:22 68.4 °F /  20.2 °C 38.1 °F /  3.4 °C 30.47in /  1031.7hPa NE 2.9mph /  4.7km/h 9.0mph /  14.5km/h 33% 0.00in /  0mm 568.0 W/m2
09:30 68.5 °F /  20.3 °C 38.3 °F /  3.5 °C 30.46in /  1031.4hPa North 2.9mph /  4.7km/h 7.0mph /  11.3km/h 33% 0.00in /  0mm 591.0 W/m2
09:36 68.7 °F /  20.4 °C 38.5 °F /  3.6 °C 30.46in /  1031.4hPa NNW 0.9mph /  1.4km/h 8.0mph /  12.9km/h 33% 0.00in /  0mm 603.0 W/m2
09:42 69.1 °F /  20.6 °C 38.8 °F /  3.8 °C 30.46in /  1031.4hPa NNE 0.9mph /  1.4km/h 5.0mph /  8km/h 33% 0.00in /  0mm 619.0 W/m2
09:48 69.1 °F /  20.6 °C 37.9 °F /  3.3 °C 30.46in /  1031.4hPa North 8.9mph /  14.3km/h 10.0mph /  16.1km/h 32% 0.00in /  0mm 628.0 W/m2
09:54 69.1 °F /  20.6 °C 37.9 °F /  3.3 °C 30.46in /  1031.4hPa North 0.9mph /  1.4km/h 9.0mph /  14.5km/h 32% 0.00in /  0mm 640.0 W/m2
10:00 69.3 °F /  20.7 °C 38.1 °F /  3.4 °C 30.46in /  1031.4hPa NNE 2.0mph /  3.2km/h 10.0mph /  16.1km/h 32% 0.00in /  0mm 650.0 W/m2
10:06 69.3 °F /  20.7 °C 38.1 °F /  3.4 °C 30.46in /  1031.4hPa NNE 2.9mph /  4.7km/h 5.0mph /  8km/h 32% 0.00in /  0mm 663.0 W/m2
10:12 69.6 °F /  20.9 °C 38.5 °F /  3.6 °C 30.45in /  1031hPa NNE 4.9mph /  7.9km/h 7.0mph /  11.3km/h 32% 0.00in /  0mm 671.0 W/m2
10:18 69.6 °F /  20.9 °C 38.5 °F /  3.6 °C 30.45in /  1031hPa Calm   6.0mph /  9.7km/h 32% 0.00in /  0mm 680.0 W/m2
10:25 70.0 °F /  21.1 °C 37.0 °F /  2.8 °C 30.45in /  1031hPa NNE 0.9mph /  1.4km/h 3.0mph /  4.8km/h 30% 0.00in /  0mm 693.0 W/m2
10:31 70.3 °F /  21.3 °C 38.3 °F /  3.5 °C 30.44in /  1030.7hPa NNE 4.9mph /  7.9km/h 6.0mph /  9.7km/h 31% 0.00in /  0mm 700.0 W/m2
10:37 70.5 °F /  21.4 °C 37.6 °F /  3.1 °C 30.44in /  1030.7hPa NE 8.9mph /  14.3km/h 9.0mph /  14.5km/h 30% 0.00in /  0mm 705.0 W/m2
10:43 70.5 °F /  21.4 °C 37.6 °F /  3.1 °C 30.44in /  1030.7hPa Calm   10.0mph /  16.1km/h 30% 0.00in /  0mm 712.0 W/m2
10:49 70.9 °F /  21.6 °C 38.7 °F /  3.7 °C 30.44in /  1030.7hPa Calm   1.0mph /  1.6km/h 31% 0.00in /  0mm 717.0 W/m2
10:55 71.2 °F /  21.8 °C 37.4 °F /  3 °C 30.44in /  1030.7hPa NE 6.0mph /  9.7km/h 7.0mph /  11.3km/h 29% 0.00in /  0mm 721.0 W/m2
11:01 71.4 °F /  21.9 °C 37.6 °F /  3.1 °C 30.44in /  1030.7hPa NNE 2.9mph /  4.7km/h 3.0mph /  4.8km/h 29% 0.00in /  0mm 726.0 W/m2
11:08 71.8 °F /  22.1 °C 37.8 °F /  3.2 °C 30.43in /  1030.4hPa East 6.0mph /  9.7km/h 9.0mph /  14.5km/h 29% 0.00in /  0mm 733.0 W/m2
11:14 72.0 °F /  22.2 °C 37.9 °F /  3.3 °C 30.43in /  1030.4hPa North 0.9mph /  1.4km/h 6.0mph /  9.7km/h 29% 0.00in /  0mm 737.0 W/m2
11:20 72.1 °F /  22.3 °C 39.0 °F /  3.9 °C 30.43in /  1030.4hPa NNE 0.9mph /  1.4km/h 7.0mph /  11.3km/h 30% 0.00in /  0mm 740.0 W/m2
11:26 72.1 °F /  22.3 °C 38.1 °F /  3.4 °C 30.42in /  1030hPa East 4.0mph /  6.4km/h 6.0mph /  9.7km/h 29% 0.00in /  0mm 744.0 W/m2
11:32 72.1 °F /  22.3 °C 38.1 °F /  3.4 °C 30.42in /  1030hPa North 2.0mph /  3.2km/h 5.0mph /  8km/h 29% 0.00in /  0mm 745.0 W/m2
11:38 72.5 °F /  22.5 °C 38.5 °F /  3.6 °C 30.42in /  1030hPa East 2.0mph /  3.2km/h 6.0mph /  9.7km/h 29% 0.00in /  0mm 744.0 W/m2
11:44 72.9 °F /  22.7 °C 37.8 °F /  3.2 °C 30.41in /  1029.7hPa NNE 2.0mph /  3.2km/h 4.0mph /  6.4km/h 28% 0.00in /  0mm 745.0 W/m2
11:50 72.9 °F /  22.7 °C 36.9 °F /  2.7 °C 30.41in /  1029.7hPa North 4.0mph /  6.4km/h 7.0mph /  11.3km/h 27% 0.00in /  0mm 745.0 W/m2
11:57 72.9 °F /  22.7 °C 37.8 °F /  3.2 °C 30.41in /  1029.7hPa ENE 4.0mph /  6.4km/h 8.0mph /  12.9km/h 28% 0.00in /  0mm 745.0 W/m2
12:03 72.7 °F /  22.6 °C 37.8 °F /  3.2 °C 30.41in /  1029.7hPa East 2.9mph /  4.7km/h 6.0mph /  9.7km/h 28% 0.00in /  0mm 742.0 W/m2
12:09 72.3 °F /  22.4 °C 37.4 °F /  3 °C 30.41in /  1029.7hPa Calm   8.0mph /  12.9km/h 28% 0.00in /  0mm 742.0 W/m2
12:15 72.1 °F /  22.3 °C 37.2 °F /  2.9 °C 30.41in /  1029.7hPa NE 4.9mph /  7.9km/h 7.0mph /  11.3km/h 28% 0.00in /  0mm 737.0 W/m2
12:21 72.7 °F /  22.6 °C 36.9 °F /  2.7 °C 30.41in /  1029.7hPa NE 0.9mph /  1.4km/h 6.0mph /  9.7km/h 27% 0.00in /  0mm 729.0 W/m2
12:27 73.0 °F /  22.8 °C 37.0 °F /  2.8 °C 30.40in /  1029.3hPa ENE 0.9mph /  1.4km/h 5.0mph /  8km/h 27% 0.00in /  0mm 729.0 W/m2
12:33 73.0 °F /  22.8 °C 37.9 °F /  3.3 °C 30.40in /  1029.3hPa ENE 2.9mph /  4.7km/h 7.0mph /  11.3km/h 28% 0.00in /  0mm 722.0 W/m2
12:40 72.9 °F /  22.7 °C 36.9 °F /  2.7 °C 30.39in /  1029hPa NE 4.9mph /  7.9km/h 11.0mph /  17.7km/h 27% 0.00in /  0mm 719.0 W/m2
12:46 72.9 °F /  22.7 °C 37.8 °F /  3.2 °C 30.39in /  1029hPa ENE 6.9mph /  11.1km/h 8.0mph /  12.9km/h 28% 0.00in /  0mm 715.0 W/m2
12:52 73.2 °F /  22.9 °C 37.2 °F /  2.9 °C 30.39in /  1029hPa Calm   9.0mph /  14.5km/h 27% 0.00in /  0mm 705.0 W/m2
12:58 73.2 °F /  22.9 °C 37.2 °F /  2.9 °C 30.39in /  1029hPa Calm   4.0mph /  6.4km/h 27% 0.00in /  0mm 694.0 W/m2
13:04 73.2 °F /  22.9 °C 37.2 °F /  2.9 °C 30.39in /  1029hPa ENE 2.9mph /  4.7km/h 6.0mph /  9.7km/h 27% 0.00in /  0mm 689.0 W/m2
13:10 73.2 °F /  22.9 °C 37.2 °F /  2.9 °C 30.39in /  1029hPa NNE 4.9mph /  7.9km/h 5.0mph /  8km/h 27% 0.00in /  0mm 679.0 W/m2
13:16 73.6 °F /  23.1 °C 35.6 °F /  2 °C 30.38in /  1028.7hPa NE 2.9mph /  4.7km/h 8.0mph /  12.9km/h 25% 0.00in /  0mm 668.0 W/m2
13:22 73.4 °F /  23 °C 36.5 °F /  2.5 °C 30.38in /  1028.7hPa East 0.9mph /  1.4km/h 9.0mph /  14.5km/h 26% 0.00in /  0mm 661.0 W/m2
13:29 73.6 °F /  23.1 °C 36.5 °F /  2.5 °C 30.38in /  1028.7hPa Calm   7.0mph /  11.3km/h 26% 0.00in /  0mm 647.0 W/m2
13:35 73.4 °F /  23 °C 36.5 °F /  2.5 °C 30.37in /  1028.3hPa SE 0.9mph /  1.4km/h 8.0mph /  12.9km/h 26% 0.00in /  0mm 635.0 W/m2
13:41 73.6 °F /  23.1 °C 37.6 °F /  3.1 °C 30.37in /  1028.3hPa ENE 6.0mph /  9.7km/h 6.0mph /  9.7km/h 27% 0.00in /  0mm 626.0 W/m2
13:47 73.8 °F /  23.2 °C 35.8 °F /  2.1 °C 30.37in /  1028.3hPa NNE 4.0mph /  6.4km/h 7.0mph /  11.3km/h 25% 0.00in /  0mm 610.0 W/m2
13:53 73.8 °F /  23.2 °C 35.8 °F /  2.1 °C 30.37in /  1028.3hPa NNE 4.0mph /  6.4km/h 8.0mph /  12.9km/h 25% 0.00in /  0mm 599.0 W/m2
13:59 73.8 °F /  23.2 °C 36.7 °F /  2.6 °C 30.37in /  1028.3hPa SE 2.9mph /  4.7km/h 7.0mph /  11.3km/h 26% 0.00in /  0mm 585.0 W/m2
14:05 73.8 °F /  23.2 °C 34.7 °F /  1.5 °C 30.37in /  1028.3hPa NNW 6.0mph /  9.7km/h 10.0mph /  16.1km/h 24% 0.00in /  0mm 571.0 W/m2
14:11 73.9 °F /  23.3 °C 36.0 °F /  2.2 °C 30.37in /  1028.3hPa East 0.9mph /  1.4km/h 6.0mph /  9.7km/h 25% 0.00in /  0mm 555.0 W/m2
14:18 73.9 °F /  23.3 °C 36.0 °F /  2.2 °C 30.37in /  1028.3hPa Calm   3.0mph /  4.8km/h 25% 0.00in /  0mm 540.0 W/m2
14:24 73.8 °F /  23.2 °C 35.8 °F /  2.1 °C 30.37in /  1028.3hPa ENE 2.9mph /  4.7km/h 3.0mph /  4.8km/h 25% 0.00in /  0mm 524.0 W/m2
14:30 73.8 °F /  23.2 °C 35.8 °F /  2.1 °C 30.37in /  1028.3hPa East 4.9mph /  7.9km/h 6.0mph /  9.7km/h 25% 0.00in /  0mm 508.0 W/m2
14:36 73.8 °F /  23.2 °C 35.8 °F /  2.1 °C 30.37in /  1028.3hPa Calm   7.0mph /  11.3km/h 25% 0.00in /  0mm 490.0 W/m2
14:42 73.8 °F /  23.2 °C 35.8 °F /  2.1 °C 30.37in /  1028.3hPa East 4.0mph /  6.4km/h 7.0mph /  11.3km/h 25% 0.00in /  0mm 469.0 W/m2
14:48 73.6 °F /  23.1 °C 35.6 °F /  2 °C 30.37in /  1028.3hPa ENE 4.0mph /  6.4km/h 13.0mph /  20.9km/h 25% 0.00in /  0mm 452.0 W/m2
14:54 73.6 °F /  23.1 °C 35.6 °F /  2 °C 30.37in /  1028.3hPa NE 4.9mph /  7.9km/h 10.0mph /  16.1km/h 25% 0.00in /  0mm 432.0 W/m2
15:01 73.6 °F /  23.1 °C 35.6 °F /  2 °C 30.37in /  1028.3hPa East 2.0mph /  3.2km/h 8.0mph /  12.9km/h 25% 0.00in /  0mm 417.0 W/m2
15:07 73.6 °F /  23.1 °C 35.6 °F /  2 °C 30.37in /  1028.3hPa NNE 4.9mph /  7.9km/h 5.0mph /  8km/h 25% 0.00in /  0mm 397.0 W/m2
15:13 73.4 °F /  23 °C 35.4 °F /  1.9 °C 30.37in /  1028.3hPa NNE 4.9mph /  7.9km/h 11.0mph /  17.7km/h 25% 0.00in /  0mm 378.0 W/m2
15:19 73.0 °F /  22.8 °C 36.1 °F /  2.3 °C 30.37in /  1028.3hPa NE 2.0mph /  3.2km/h 4.0mph /  6.4km/h 26% 0.00in /  0mm 355.0 W/m2
15:25 72.9 °F /  22.7 °C 36.0 °F /  2.2 °C 30.37in /  1028.3hPa NNE 2.0mph /  3.2km/h 5.0mph /  8km/h 26% 0.00in /  0mm 336.0 W/m2
15:31 72.9 °F /  22.7 °C 36.0 °F /  2.2 °C 30.37in /  1028.3hPa Calm   5.0mph /  8km/h 26% 0.00in /  0mm 44.0 W/m2
15:37 72.7 °F /  22.6 °C 34.9 °F /  1.6 °C 30.37in /  1028.3hPa North 6.9mph /  11.1km/h 10.0mph /  16.1km/h 25% 0.00in /  0mm 39.0 W/m2
15:43 72.1 °F /  22.3 °C 35.4 °F /  1.9 °C 30.37in /  1028.3hPa ENE 2.9mph /  4.7km/h 3.0mph /  4.8km/h 26% 0.00in /  0mm 35.0 W/m2
15:49 72.0 °F /  22.2 °C 35.2 °F /  1.8 °C 30.37in /  1028.3hPa SE 0.9mph /  1.4km/h 6.0mph /  9.7km/h 26% 0.00in /  0mm 33.0 W/m2
15:56 71.6 °F /  22 °C 34.0 °F /  1.1 °C 30.37in /  1028.3hPa ENE 2.0mph /  3.2km/h 6.0mph /  9.7km/h 25% 0.00in /  0mm 32.0 W/m2
16:02 71.2 °F /  21.8 °C 33.6 °F /  0.9 °C 30.38in /  1028.7hPa NE 6.0mph /  9.7km/h 8.0mph /  12.9km/h 25% 0.00in /  0mm 26.0 W/m2
16:08 71.1 °F /  21.7 °C 34.5 °F /  1.4 °C 30.37in /  1028.3hPa NE 4.0mph /  6.4km/h 7.0mph /  11.3km/h 26% 0.00in /  0mm 23.0 W/m2
16:14 70.7 °F /  21.5 °C 35.1 °F /  1.7 °C 30.38in /  1028.7hPa NNE 0.9mph /  1.4km/h 5.0mph /  8km/h 27% 0.00in /  0mm 21.0 W/m2
16:20 70.3 °F /  21.3 °C 34.7 °F /  1.5 °C 30.38in /  1028.7hPa ENE 4.0mph /  6.4km/h 8.0mph /  12.9km/h 27% 0.00in /  0mm 19.0 W/m2
16:26 70.2 °F /  21.2 °C 33.6 °F /  0.9 °C 30.38in /  1028.7hPa NE 0.9mph /  1.4km/h 7.0mph /  11.3km/h 26% 0.00in /  0mm 18.0 W/m2
16:32 70.0 °F /  21.1 °C 33.4 °F /  0.8 °C 30.38in /  1028.7hPa Calm   2.0mph /  3.2km/h 26% 0.00in /  0mm 19.0 W/m2
16:39 69.6 °F /  20.9 °C 34.2 °F /  1.2 °C 30.39in /  1029hPa ENE 2.0mph /  3.2km/h 8.0mph /  12.9km/h 27% 0.00in /  0mm 16.0 W/m2
16:45 69.4 °F /  20.8 °C 34.0 °F /  1.1 °C 30.39in /  1029hPa NE 0.9mph /  1.4km/h 6.0mph /  9.7km/h 27% 0.00in /  0mm 14.0 W/m2
16:51 69.1 °F /  20.6 °C 33.6 °F /  0.9 °C 30.39in /  1029hPa ENE 0.9mph /  1.4km/h 4.0mph /  6.4km/h 27% 0.00in /  0mm 12.0 W/m2
16:57 68.7 °F /  20.4 °C 34.3 °F /  1.3 °C 30.39in /  1029hPa ESE 4.0mph /  6.4km/h 4.0mph /  6.4km/h 28% 0.00in /  0mm 12.0 W/m2
17:03 68.4 °F /  20.2 °C 34.9 °F /  1.6 °C 30.39in /  1029hPa Calm   1.0mph /  1.6km/h 29% 0.00in /  0mm 9.0 W/m2
17:09 68.2 °F /  20.1 °C 34.7 °F /  1.5 °C 30.40in /  1029.3hPa Calm   2.0mph /  3.2km/h 29% 0.00in /  0mm 7.0 W/m2
17:15 67.5 °F /  19.7 °C 34.2 °F /  1.2 °C 30.40in /  1029.3hPa ENE 2.0mph /  3.2km/h 3.0mph /  4.8km/h 29% 0.00in /  0mm 0.0 W/m2
17:21 67.1 °F /  19.5 °C 34.7 °F /  1.5 °C 30.40in /  1029.3hPa Calm   3.0mph /  4.8km/h 30% 0.00in /  0mm 0.0 W/m2
17:28 66.6 °F /  19.2 °C 35.1 °F /  1.7 °C 30.40in /  1029.3hPa Calm   3.0mph /  4.8km/h 31% 0.00in /  0mm 0.0 W/m2
17:34 66.0 °F /  18.9 °C 35.2 °F /  1.8 °C 30.40in /  1029.3hPa NE 2.0mph /  3.2km/h 2.0mph /  3.2km/h 32% 0.00in /  0mm 0.0 W/m2
17:40 65.3 °F /  18.5 °C 34.7 °F /  1.5 °C 30.41in /  1029.7hPa Calm     32% 0.00in /  0mm 0.0 W/m2
17:46 64.8 °F /  18.2 °C 35.1 °F /  1.7 °C 30.41in /  1029.7hPa Calm     33% 0.00in /  0mm 0.0 W/m2
17:52 64.0 °F /  17.8 °C 35.1 °F /  1.7 °C 30.41in /  1029.7hPa Calm   1.0mph /  1.6km/h 34% 0.00in /  0mm 0.0 W/m2
17:58 63.1 °F /  17.3 °C 35.1 °F /  1.7 °C 30.42in /  1030hPa Calm   1.0mph /  1.6km/h 35% 0.00in /  0mm 0.0 W/m2
18:04 62.4 °F /  16.9 °C 34.3 °F /  1.3 °C 30.42in /  1030hPa Calm     35% 0.00in /  0mm 0.0 W/m2
18:11 61.9 °F /  16.6 °C 34.7 °F /  1.5 °C 30.42in /  1030hPa Calm     36% 0.00in /  0mm 0.0 W/m2
18:17 61.2 °F /  16.2 °C 34.7 °F /  1.5 °C 30.43in /  1030.4hPa Calm     37% 0.00in /  0mm 0.0 W/m2
18:23 60.6 °F /  15.9 °C 34.9 °F /  1.6 °C 30.43in /  1030.4hPa Calm     38% 0.00in /  0mm 0.0 W/m2
18:29 60.1 °F /  15.6 °C 34.3 °F /  1.3 °C 30.43in /  1030.4hPa Calm     38% 0.00in /  0mm 0.0 W/m2
18:35 59.5 °F /  15.3 °C 34.5 °F /  1.4 °C 30.43in /  1030.4hPa Calm     39% 0.00in /  0mm 0.0 W/m2
18:41 59.2 °F /  15.1 °C 34.2 °F /  1.2 °C 30.43in /  1030.4hPa Calm   1.0mph /  1.6km/h 39% 0.00in /  0mm 0.0 W/m2
18:47 58.6 °F /  14.8 °C 34.3 °F /  1.3 °C 30.44in /  1030.7hPa ESE 0.9mph /  1.4km/h 1.0mph /  1.6km/h 40% 0.00in /  0mm 0.0 W/m2
18:54 58.5 °F /  14.7 °C 34.2 °F /  1.2 °C 30.44in /  1030.7hPa Calm     40% 0.00in /  0mm 0.0 W/m2
19:00 58.3 °F /  14.6 °C 34.7 °F /  1.5 °C 30.44in /  1030.7hPa Calm     41% 0.00in /  0mm 0.0 W/m2
19:06 57.9 °F /  14.4 °C 34.3 °F /  1.3 °C 30.45in /  1031hPa Calm     41% 0.00in /  0mm 0.0 W/m2
19:12 57.6 °F /  14.2 °C 34.7 °F /  1.5 °C 30.45in /  1031hPa ENE 0.9mph /  1.4km/h 1.0mph /  1.6km/h 42% 0.00in /  0mm 0.0 W/m2
19:18 57.4 °F /  14.1 °C 34.5 °F /  1.4 °C 30.45in /  1031hPa Calm   1.0mph /  1.6km/h 42% 0.00in /  0mm 0.0 W/m2
19:24 57.0 °F /  13.9 °C 34.7 °F /  1.5 °C 30.45in /  1031hPa Calm   2.0mph /  3.2km/h 43% 0.00in /  0mm 0.0 W/m2
19:30 56.8 °F /  13.8 °C 34.5 °F /  1.4 °C 30.45in /  1031hPa Calm   1.0mph /  1.6km/h 43% 0.00in /  0mm 0.0 W/m2
19:39 56.5 °F /  13.6 °C 34.3 °F /  1.3 °C 30.46in /  1031.4hPa ENE 0.9mph /  1.4km/h 2.0mph /  3.2km/h 43% 0.00in /  0mm 0.0 W/m2
19:45 56.3 °F /  13.5 °C 34.7 °F /  1.5 °C 30.46in /  1031.4hPa ENE 0.9mph /  1.4km/h 2.0mph /  3.2km/h 44% 0.00in /  0mm 0.0 W/m2
19:51 55.9 °F /  13.3 °C 34.9 °F /  1.6 °C 30.46in /  1031.4hPa East 0.9mph /  1.4km/h 2.0mph /  3.2km/h 45% 0.00in /  0mm 0.0 W/m2
19:57 55.8 °F /  13.2 °C 34.7 °F /  1.5 °C 30.46in /  1031.4hPa Calm   2.0mph /  3.2km/h 45% 0.00in /  0mm 0.0 W/m2
20:03 55.6 °F /  13.1 °C 34.5 °F /  1.4 °C 30.47in /  1031.7hPa Calm   2.0mph /  3.2km/h 45% 0.00in /  0mm 0.0 W/m2
20:09 55.2 °F /  12.9 °C 34.2 °F /  1.2 °C 30.47in /  1031.7hPa Calm   2.0mph /  3.2km/h 45% 0.00in /  0mm 0.0 W/m2
20:16 55.0 °F /  12.8 °C 34.7 °F /  1.5 °C 30.47in /  1031.7hPa Calm   1.0mph /  1.6km/h 46% 0.00in /  0mm 0.0 W/m2
20:22 54.9 °F /  12.7 °C 34.5 °F /  1.4 °C 30.47in /  1031.7hPa Calm   3.0mph /  4.8km/h 46% 0.00in /  0mm 0.0 W/m2
20:28 54.7 °F /  12.6 °C 34.3 °F /  1.3 °C 30.47in /  1031.7hPa NE 2.0mph /  3.2km/h 2.0mph /  3.2km/h 46% 0.00in /  0mm 0.0 W/m2
20:34 54.5 °F /  12.5 °C 34.7 °F /  1.5 °C 30.47in /  1031.7hPa NE 0.9mph /  1.4km/h 3.0mph /  4.8km/h 47% 0.00in /  0mm 0.0 W/m2
20:40 54.3 °F /  12.4 °C 34.5 °F /  1.4 °C 30.47in /  1031.7hPa Calm   2.0mph /  3.2km/h 47% 0.00in /  0mm 0.0 W/m2
20:46 54.1 °F /  12.3 °C 34.3 °F /  1.3 °C 30.48in /  1032.1hPa Calm   2.0mph /  3.2km/h 47% 0.00in /  0mm 0.0 W/m2
20:53 54.0 °F /  12.2 °C 34.2 °F /  1.2 °C 30.48in /  1032.1hPa Calm   1.0mph /  1.6km/h 47% 0.00in /  0mm 0.0 W/m2
20:59 53.8 °F /  12.1 °C 34.0 °F /  1.1 °C 30.48in /  1032.1hPa ENE 2.0mph /  3.2km/h 3.0mph /  4.8km/h 47% 0.00in /  0mm 0.0 W/m2
21:05 53.6 °F /  12 °C 33.8 °F /  1 °C 30.48in /  1032.1hPa Calm   1.0mph /  1.6km/h 47% 0.00in /  0mm 0.0 W/m2
21:11 53.4 °F /  11.9 °C 34.2 °F /  1.2 °C 30.48in /  1032.1hPa Calm   2.0mph /  3.2km/h 48% 0.00in /  0mm 0.0 W/m2
21:17 53.2 °F /  11.8 °C 34.0 °F /  1.1 °C 30.48in /  1032.1hPa Calm   1.0mph /  1.6km/h 48% 0.00in /  0mm 0.0 W/m2
21:23 53.2 °F /  11.8 °C 34.0 °F /  1.1 °C 30.48in /  1032.1hPa Calm   4.0mph /  6.4km/h 48% 0.00in /  0mm 0.0 W/m2
21:29 53.1 °F /  11.7 °C 33.8 °F /  1 °C 30.48in /  1032.1hPa Calm   1.0mph /  1.6km/h 48% 0.00in /  0mm 0.0 W/m2
21:35 52.9 °F /  11.6 °C 33.8 °F /  1 °C 30.48in /  1032.1hPa Calm   3.0mph /  4.8km/h 48% 0.00in /  0mm 0.0 W/m2
21:42 52.7 °F /  11.5 °C 33.6 °F /  0.9 °C 30.48in /  1032.1hPa Calm   4.0mph /  6.4km/h 48% 0.00in /  0mm 0.0 W/m2
21:48 52.7 °F /  11.5 °C 33.6 °F /  0.9 °C 30.48in /  1032.1hPa Calm   3.0mph /  4.8km/h 48% 0.00in /  0mm 0.0 W/m2
21:54 52.5 °F /  11.4 °C 33.4 °F /  0.8 °C 30.48in /  1032.1hPa Calm   3.0mph /  4.8km/h 48% 0.00in /  0mm 0.0 W/m2
22:00 52.5 °F /  11.4 °C 33.4 °F /  0.8 °C 30.48in /  1032.1hPa NE 0.9mph /  1.4km/h 2.0mph /  3.2km/h 48% 0.00in /  0mm 0.0 W/m2
22:06 52.3 °F /  11.3 °C 33.8 °F /  1 °C 30.48in /  1032.1hPa Calm   3.0mph /  4.8km/h 49% 0.00in /  0mm 0.0 W/m2
22:12 52.3 °F /  11.3 °C 33.8 °F /  1 °C 30.48in /  1032.1hPa Calm   4.0mph /  6.4km/h 49% 0.00in /  0mm 0.0 W/m2
22:18 52.2 °F /  11.2 °C 33.6 °F /  0.9 °C 30.48in /  1032.1hPa Calm   3.0mph /  4.8km/h 49% 0.00in /  0mm 0.0 W/m2
22:25 52.2 °F /  11.2 °C 33.6 °F /  0.9 °C 30.48in /  1032.1hPa Calm   1.0mph /  1.6km/h 49% 0.00in /  0mm 0.0 W/m2
22:31 52.2 °F /  11.2 °C 33.6 °F /  0.9 °C 30.48in /  1032.1hPa Calm   2.0mph /  3.2km/h 49% 0.00in /  0mm 0.0 W/m2
22:37 52.2 °F /  11.2 °C 33.6 °F /  0.9 °C 30.48in /  1032.1hPa ENE 0.9mph /  1.4km/h 2.0mph /  3.2km/h 49% 0.00in /  0mm 0.0 W/m2
22:43 52.0 °F /  11.1 °C 33.4 °F /  0.8 °C 30.48in /  1032.1hPa Calm   1.0mph /  1.6km/h 49% 0.00in /  0mm 0.0 W/m2
22:49 51.6 °F /  10.9 °C 33.1 °F /  0.6 °C 30.48in /  1032.1hPa East 2.0mph /  3.2km/h 3.0mph /  4.8km/h 49% 0.00in /  0mm 0.0 W/m2
22:55 51.6 °F /  10.9 °C 33.6 °F /  0.9 °C 30.48in /  1032.1hPa Calm   3.0mph /  4.8km/h 50% 0.00in /  0mm 0.0 W/m2
23:01 51.4 °F /  10.8 °C 33.4 °F /  0.8 °C 30.48in /  1032.1hPa Calm   1.0mph /  1.6km/h 50% 0.00in /  0mm 0.0 W/m2
23:07 51.3 °F /  10.7 °C 33.3 °F /  0.7 °C 30.48in /  1032.1hPa Calm   4.0mph /  6.4km/h 50% 0.00in /  0mm 0.0 W/m2
23:14 51.1 °F /  10.6 °C 33.1 °F /  0.6 °C 30.48in /  1032.1hPa Calm   1.0mph /  1.6km/h 50% 0.00in /  0mm 0.0 W/m2
23:20 50.7 °F /  10.4 °C 33.3 °F /  0.7 °C 30.48in /  1032.1hPa East 0.9mph /  1.4km/h 1.0mph /  1.6km/h 51% 0.00in /  0mm 0.0 W/m2
23:26 50.7 °F /  10.4 °C 33.3 °F /  0.7 °C 30.48in /  1032.1hPa East 0.9mph /  1.4km/h 2.0mph /  3.2km/h 51% 0.00in /  0mm 0.0 W/m2
23:32 50.5 °F /  10.3 °C 33.1 °F /  0.6 °C 30.48in /  1032.1hPa Calm   3.0mph /  4.8km/h 51% 0.00in /  0mm 0.0 W/m2
23:38 50.4 °F /  10.2 °C 32.9 °F /  0.5 °C 30.48in /  1032.1hPa East 0.9mph /  1.4km/h 2.0mph /  3.2km/h 51% 0.00in /  0mm 0.0 W/m2
23:44 50.2 °F /  10.1 °C 33.3 °F /  0.7 °C 30.48in /  1032.1hPa Calm   3.0mph /  4.8km/h 52% 0.00in /  0mm 0.0 W/m2
23:50 50.2 °F /  10.1 °C 33.3 °F /  0.7 °C 30.48in /  1032.1hPa Calm   2.0mph /  3.2km/h 52% 0.00in /  0mm 0.0 W/m2
23:59 50.2 °F /  10.1 °C 33.3 °F /  0.7 °C 30.48in /  1032.1hPa Calm   1.0mph /  1.6km/h 52% 0.00in /  0mm 0.0 W/m2
Olympia, Windhoek, Namibia
Compliments of Weather Underground - 3 mb